Huvudsida
METAR-TAF:

METAR-TAF

Flygplatser :

Emmens flygbas

Emmen, Schweiz

latitud: 47-05-32N, longitud: 8-18-16E, höjd: 426 m

Aktuellt väderrapport

Denna rapport gjordes för 36 minuter sedan, klockan 22:20 UTC
Vind 1 kt från nord/nordost
Temperatur 12°C
Fuktighet 67%
Tryck 1030 hPa
Sikt 10 km eller mer

METAR: LSME 272220Z AUTO 02001KT 9999NDV NCD 12/06 Q1030 RMK

Tid: 00:56 (22:56 UTC)


TAF: saknas

Aktuella väderrapporter och prognoser från 4000 flygplatser (METAR- och TAF-rapporter).

De tillgängliga stationerna syns som gula och röda prickar på kartan.

För musen över prickarna för att se namnen på stationerna.

Klicka sedan för att få väderrapporter och prognoser.

För att ändra kartan: Klicka på de gröna knapparna med ett svart kors på för att zooma in; den gröna knappen med ett streck på för att zooma ut; eller på de gröna pilarna för angränsande kartor.


METAR-TAF: